Time,TemperatureF,DewpointF,PressureIn,WindDirection,WindDirectionDegrees,WindSpeedMPH,WindSpeedGustMPH,Humidity,HourlyPrecipIn,Conditions,Clouds,dailyrainin,SolarRadiationWatts/m^2,SoftwareType,DateUTC
2013-04-05 05:52:00,46.0,17.8,30.72,West,264,0.0,5.0,32,0.00,,,0.00,0.0,meteohub,2013-04-05 12:52:00,
2013-04-05 05:59:00,45.5,18.7,30.72,NW,304,3.0,4.0,34,0.00,,,0.00,0.0,meteohub,2013-04-05 12:59:00,
2013-04-05 06:17:00,44.6,18.7,30.72,West,267,3.0,4.0,35,0.00,,,0.00,7.0,meteohub,2013-04-05 13:17:00,
2013-04-05 06:37:00,43.5,19.6,30.72,WNW,288,1.0,4.0,38,0.00,,,0.00,25.0,meteohub,2013-04-05 13:37:00,
2013-04-05 06:42:00,43.2,21.0,30.72,NW,326,3.0,4.0,41,0.00,,,0.00,30.0,meteohub,2013-04-05 13:42:00,
2013-04-05 06:47:00,42.8,20.7,30.72,NW,313,0.0,4.0,41,0.00,,,0.00,28.0,meteohub,2013-04-05 13:47:00,
2013-04-05 06:57:00,42.8,21.9,30.72,WSW,246,2.0,4.0,43,0.00,,,0.00,72.0,meteohub,2013-04-05 13:57:00,
2013-04-05 07:05:00,43.0,23.2,30.72,WSW,253,2.0,4.0,45,0.00,,,0.00,49.0,meteohub,2013-04-05 14:05:00,
2013-04-05 07:12:00,43.0,23.5,30.72,North,355,0.0,4.0,46,0.00,,,0.00,111.0,meteohub,2013-04-05 14:12:00,
2013-04-05 07:25:00,44.1,21.2,30.72,East,91,3.0,3.0,40,0.00,,,0.00,74.0,meteohub,2013-04-05 14:25:00,
2013-04-05 07:35:00,47.7,18.5,30.72,East,94,0.0,3.0,31,0.00,,,0.00,105.0,meteohub,2013-04-05 14:35:00,
2013-04-05 07:51:00,49.8,18.9,30.73,ESE,114,2.0,5.0,29,0.00,,,0.00,294.0,meteohub,2013-04-05 14:51:00,
2013-04-05 07:52:00,51.3,20.8,30.73,East,94,2.0,5.0,30,0.00,,,0.00,327.0,meteohub,2013-04-05 14:52:00,
2013-04-05 07:57:00,51.6,18.7,30.73,ESE,102,1.0,6.0,27,0.00,,,0.00,348.0,meteohub,2013-04-05 14:57:00,
2013-04-05 08:02:00,52.0,19.0,30.73,ESE,103,5.0,7.0,27,0.00,,,0.00,367.0,meteohub,2013-04-05 15:02:00,
2013-04-05 08:18:00,52.9,18.9,30.73,ESE,116,7.0,11.0,26,0.00,,,0.00,424.0,meteohub,2013-04-05 15:18:00,
2013-04-05 08:27:00,53.6,20.5,30.73,ESE,102,5.0,11.0,27,0.00,,,0.00,459.0,meteohub,2013-04-05 15:27:00,
2013-04-05 08:38:00,54.3,19.2,30.72,ESE,109,5.0,10.0,25,0.00,,,0.00,497.0,meteohub,2013-04-05 15:38:00,
2013-04-05 08:43:00,54.7,17.6,30.72,ESE,106,7.0,11.0,23,0.00,,,0.00,512.0,meteohub,2013-04-05 15:43:00,
2013-04-05 08:57:00,55.0,18.0,30.72,East,82,7.0,15.0,23,0.00,,,0.00,547.0,meteohub,2013-04-05 15:57:00,
2013-04-05 09:07:00,55.8,15.3,30.72,ESE,113,8.0,14.0,20,0.00,,,0.00,601.0,meteohub,2013-04-05 16:07:00,
2013-04-05 09:15:00,55.6,16.2,30.72,SE,130,3.0,14.0,21,0.00,,,0.00,510.0,meteohub,2013-04-05 16:15:00,
2013-04-05 09:17:00,55.8,16.3,30.72,ESE,107,4.0,14.0,21,0.00,,,0.00,636.0,meteohub,2013-04-05 16:17:00,
2013-04-05 09:22:00,56.1,16.7,30.72,NNE,21,3.0,13.0,21,0.00,,,0.00,650.0,meteohub,2013-04-05 16:22:00,
2013-04-05 09:30:00,56.3,16.9,30.72,ENE,76,7.0,14.0,21,0.00,,,0.00,659.0,meteohub,2013-04-05 16:30:00,
2013-04-05 09:32:00,56.5,17.1,30.72,East,90,6.0,14.0,21,0.00,,,0.00,675.0,meteohub,2013-04-05 16:32:00,
2013-04-05 09:37:00,56.1,15.6,30.72,ENE,76,7.0,14.0,20,0.00,,,0.00,687.0,meteohub,2013-04-05 16:37:00,
2013-04-05 09:42:00,55.8,17.4,30.73,SE,139,1.0,9.0,22,0.00,,,0.00,701.0,meteohub,2013-04-05 16:42:00,
2013-04-05 09:47:00,55.6,17.2,30.72,ESE,113,4.0,9.0,22,0.00,,,0.00,717.0,meteohub,2013-04-05 16:47:00,
2013-04-05 09:52:00,55.8,17.4,30.72,East,94,1.0,14.0,22,0.00,,,0.00,729.0,meteohub,2013-04-05 16:52:00,
2013-04-05 10:02:00,56.3,18.0,30.72,East,95,6.0,13.0,22,0.00,,,0.00,754.0,meteohub,2013-04-05 17:02:00,
2013-04-05 10:12:00,55.9,16.5,30.72,NE,53,4.0,13.0,21,0.00,,,0.00,780.0,meteohub,2013-04-05 17:12:00,
2013-04-05 10:17:00,55.8,16.3,30.72,SE,142,4.0,13.0,21,0.00,,,0.00,793.0,meteohub,2013-04-05 17:17:00,
2013-04-05 10:22:00,56.1,15.6,30.72,ESE,102,7.0,13.0,20,0.00,,,0.00,803.0,meteohub,2013-04-05 17:22:00,
2013-04-05 10:35:00,55.9,16.5,30.73,ESE,102,3.0,12.0,21,0.00,,,0.00,823.0,meteohub,2013-04-05 17:35:00,
2013-04-05 10:47:00,55.4,16.2,30.73,East,83,2.0,14.0,21,0.00,,,0.00,844.0,meteohub,2013-04-05 17:47:00,
2013-04-05 10:59:00,56.3,16.9,30.72,SE,133,5.0,11.0,21,0.00,,,0.00,875.0,meteohub,2013-04-05 17:59:00,
2013-04-05 11:02:00,56.5,17.1,30.73,ESE,119,5.0,11.0,21,0.00,,,0.00,882.0,meteohub,2013-04-05 18:02:00,
2013-04-05 11:08:00,56.5,17.1,30.72,NNE,29,2.0,11.0,21,0.00,,,0.00,889.0,meteohub,2013-04-05 18:08:00,
2013-04-05 11:12:00,56.7,17.2,30.73,NW,325,5.0,9.0,21,0.00,,,0.00,900.0,meteohub,2013-04-05 18:12:00,
2013-04-05 11:17:00,56.7,16.0,30.73,ESE,107,5.0,9.0,20,0.00,,,0.00,905.0,meteohub,2013-04-05 18:17:00,
2013-04-05 11:28:00,56.3,16.9,30.72,SSE,150,5.0,14.0,21,0.00,,,0.00,914.0,meteohub,2013-04-05 18:28:00,
2013-04-05 11:37:00,58.1,19.4,30.72,SE,144,0.0,15.0,22,0.00,,,0.00,926.0,meteohub,2013-04-05 18:37:00,
2013-04-05 11:42:00,58.8,19.0,30.72,SE,138,0.0,15.0,21,0.00,,,0.00,932.0,meteohub,2013-04-05 18:42:00,
2013-04-05 11:47:00,58.5,18.7,30.72,East,82,0.0,8.0,21,0.00,,,0.00,937.0,meteohub,2013-04-05 18:47:00,
2013-04-05 11:52:00,58.6,21.9,30.72,NNW,342,4.0,8.0,24,0.00,,,0.00,940.0,meteohub,2013-04-05 18:52:00,
2013-04-05 11:57:00,58.8,20.1,30.72,NE,49,4.0,9.0,22,0.00,,,0.00,944.0,meteohub,2013-04-05 18:57:00,
2013-04-05 12:03:00,58.5,18.7,30.72,NW,323,2.0,9.0,21,0.00,,,0.00,949.0,meteohub,2013-04-05 19:03:00,
2013-04-05 12:15:00,58.8,17.8,30.72,SE,132,1.0,7.0,20,0.00,,,0.00,953.0,meteohub,2013-04-05 19:15:00,
2013-04-05 12:22:00,58.6,16.5,30.71,ESE,115,0.0,12.0,19,0.00,,,0.00,953.0,meteohub,2013-04-05 19:22:00,
2013-04-05 12:27:00,58.5,17.6,30.71,ESE,106,7.0,12.0,20,0.00,,,0.00,953.0,meteohub,2013-04-05 19:27:00,
2013-04-05 12:37:00,58.5,19.8,30.71,ESE,107,5.0,13.0,22,0.00,,,0.00,954.0,meteohub,2013-04-05 19:37:00,
2013-04-05 12:47:00,58.5,19.8,30.71,NNW,346,1.0,12.0,22,0.00,,,0.00,951.0,meteohub,2013-04-05 19:47:00,
2013-04-05 12:56:00,58.8,21.0,30.70,East,80,3.0,12.0,23,0.00,,,0.00,951.0,meteohub,2013-04-05 19:56:00,
2013-04-05 13:08:00,58.1,21.6,30.69,North,355,3.0,19.0,24,0.00,,,0.00,946.0,meteohub,2013-04-05 20:08:00,
2013-04-05 13:22:00,58.1,23.4,30.69,ESE,122,3.0,13.0,26,0.00,,,0.00,932.0,meteohub,2013-04-05 20:22:00,
2013-04-05 13:28:00,58.5,24.6,30.69,ESE,109,8.0,13.0,27,0.00,,,0.00,923.0,meteohub,2013-04-05 20:28:00,
2013-04-05 13:32:00,58.6,25.7,30.68,ESE,104,7.0,13.0,28,0.00,,,0.00,919.0,meteohub,2013-04-05 20:32:00,
2013-04-05 13:37:00,58.1,24.3,30.68,ESE,119,7.0,12.0,27,0.00,,,0.00,483.0,meteohub,2013-04-05 20:37:00,
2013-04-05 13:42:00,57.9,25.0,30.68,East,82,6.0,14.0,28,0.00,,,0.00,37.0,meteohub,2013-04-05 20:42:00,
2013-04-05 13:48:00,57.7,24.8,30.68,NNE,19,1.0,14.0,28,0.00,,,0.00,37.0,meteohub,2013-04-05 20:48:00,
2013-04-05 14:03:00,57.9,24.1,30.68,ENE,74,2.0,12.0,27,0.00,,,0.00,37.0,meteohub,2013-04-05 21:03:00,
2013-04-05 14:08:00,57.7,23.9,30.67,SE,124,12.0,12.0,27,0.00,,,0.00,37.0,meteohub,2013-04-05 21:08:00,
2013-04-05 14:17:00,58.1,24.3,30.67,NE,44,3.0,15.0,27,0.00,,,0.00,39.0,meteohub,2013-04-05 21:17:00,
2013-04-05 14:22:00,58.5,24.6,30.67,West,281,5.0,15.0,27,0.00,,,0.00,849.0,meteohub,2013-04-05 21:22:00,
2013-04-05 14:37:00,57.7,23.9,30.66,NE,54,6.0,11.0,27,0.00,,,0.00,812.0,meteohub,2013-04-05 21:37:00,
2013-04-05 14:45:00,57.9,23.2,30.66,East,88,13.0,13.0,26,0.00,,,0.00,809.0,meteohub,2013-04-05 21:45:00,
2013-04-05 14:52:00,58.3,24.4,30.66,ESE,111,5.0,13.0,27,0.00,,,0.00,780.0,meteohub,2013-04-05 21:52:00,
2013-04-05 15:02:00,58.1,23.4,30.66,SE,128,0.0,14.0,26,0.00,,,0.00,758.0,meteohub,2013-04-05 22:02:00,
2013-04-05 15:10:00,58.3,24.4,30.66,West,263,1.0,14.0,27,0.00,,,0.00,742.0,meteohub,2013-04-05 22:10:00,
2013-04-05 15:22:00,58.6,23.9,30.65,NE,38,4.0,10.0,26,0.00,,,0.00,700.0,meteohub,2013-04-05 22:22:00,
2013-04-05 15:33:00,57.7,23.9,30.66,North,5,0.0,14.0,27,0.00,,,0.00,670.0,meteohub,2013-04-05 22:33:00,
2013-04-05 15:43:00,57.7,23.9,30.65,NNW,328,4.0,10.0,27,0.00,,,0.00,633.0,meteohub,2013-04-05 22:43:00,
2013-04-05 15:52:00,57.6,24.6,30.65,ESE,119,5.0,9.0,28,0.00,,,0.00,278.0,meteohub,2013-04-05 22:52:00,
2013-04-05 16:03:00,57.4,24.6,30.65,SE,146,2.0,8.0,28,0.00,,,0.00,308.0,meteohub,2013-04-05 23:03:00,
2013-04-05 16:12:00,57.0,25.0,30.65,NNE,25,3.0,9.0,29,0.00,,,0.00,186.0,meteohub,2013-04-05 23:12:00,
2013-04-05 16:17:00,56.7,24.8,30.65,NNE,26,3.0,9.0,29,0.00,,,0.00,183.0,meteohub,2013-04-05 23:17:00,
2013-04-05 16:22:00,56.5,24.6,30.65,West,262,0.0,9.0,29,0.00,,,0.00,86.0,meteohub,2013-04-05 23:22:00,
2013-04-05 16:30:00,56.7,24.8,30.65,ENE,61,4.0,9.0,29,0.00,,,0.00,294.0,meteohub,2013-04-05 23:30:00,
2013-04-05 16:37:00,56.3,23.5,30.65,NE,56,2.0,12.0,28,0.00,,,0.00,70.0,meteohub,2013-04-05 23:37:00,
2013-04-05 16:42:00,56.1,24.3,30.65,West,267,5.0,12.0,29,0.00,,,0.00,63.0,meteohub,2013-04-05 23:42:00,
2013-04-05 16:48:00,55.8,23.9,30.65,SSW,209,0.0,12.0,29,0.00,,,0.00,28.0,meteohub,2013-04-05 23:48:00,
2013-04-05 16:57:00,55.4,24.4,30.65,WSW,250,1.0,11.0,30,0.00,,,0.00,28.0,meteohub,2013-04-05 23:57:00,
2013-04-05 17:02:00,55.2,24.3,30.65,NNW,334,3.0,11.0,30,0.00,,,0.00,26.0,meteohub,2013-04-06 00:02:00,
2013-04-05 17:07:00,55.0,24.1,30.66,SW,234,5.0,10.0,30,0.00,,,0.00,23.0,meteohub,2013-04-06 00:07:00,
2013-04-05 17:22:00,55.0,24.1,30.66,NNW,331,0.0,13.0,30,0.00,,,0.00,21.0,meteohub,2013-04-06 00:22:00,
2013-04-05 17:32:00,54.7,23.0,30.66,NNE,13,4.0,12.0,29,0.00,,,0.00,19.0,meteohub,2013-04-06 00:32:00,
2013-04-05 17:37:00,54.5,23.7,30.66,SSE,157,2.0,12.0,30,0.00,,,0.00,19.0,meteohub,2013-04-06 00:37:00,
2013-04-05 17:43:00,54.3,23.5,30.66,WSW,254,0.0,12.0,30,0.00,,,0.00,18.0,meteohub,2013-04-06 00:43:00,
2013-04-05 17:53:00,54.0,23.2,30.66,ESE,113,3.0,7.0,30,0.00,,,0.00,16.0,meteohub,2013-04-06 00:53:00,
2013-04-05 18:02:00,53.6,23.7,30.66,WNW,290,0.0,4.0,31,0.00,,,0.00,14.0,meteohub,2013-04-06 01:02:00,
2013-04-05 18:07:00,53.4,23.5,30.66,NE,46,1.0,7.0,31,0.00,,,0.00,12.0,meteohub,2013-04-06 01:07:00,
2013-04-05 18:27:00,52.3,24.1,30.66,NNW,340,0.0,5.0,33,0.00,,,0.00,9.0,meteohub,2013-04-06 01:27:00,
2013-04-05 18:32:00,52.0,23.7,30.66,NE,42,3.0,3.0,33,0.00,,,0.00,7.0,meteohub,2013-04-06 01:32:00,
2013-04-05 18:38:00,52.0,23.7,30.66,West,273,0.0,6.0,33,0.00,,,0.00,5.0,meteohub,2013-04-06 01:38:00,
2013-04-05 18:53:00,50.5,23.9,30.66,West,266,0.0,4.0,35,0.00,,,0.00,0.0,meteohub,2013-04-06 01:53:00,
2013-04-05 19:02:00,49.8,23.9,30.66,West,277,3.0,3.0,36,0.00,,,0.00,0.0,meteohub,2013-04-06 02:02:00,
2013-04-05 19:07:00,49.6,25.7,30.65,West,272,0.0,3.0,39,0.00,,,0.00,0.0,meteohub,2013-04-06 02:07:00,
2013-04-05 19:22:00,48.7,26.1,30.66,North,5,0.0,4.0,41,0.00,,,0.00,0.0,meteohub,2013-04-06 02:22:00,
2013-04-05 19:37:00,48.4,27.0,30.66,SW,223,0.0,4.0,43,0.00,,,0.00,0.0,meteohub,2013-04-06 02:37:00,
2013-04-05 19:42:00,48.6,27.1,30.66,West,259,3.0,6.0,43,0.00,,,0.00,0.0,meteohub,2013-04-06 02:42:00,
2013-04-05 19:47:00,48.6,27.1,30.66,NW,316,5.0,6.0,43,0.00,,,0.00,0.0,meteohub,2013-04-06 02:47:00,
2013-04-05 19:57:00,48.7,27.3,30.66,WSW,257,1.0,9.0,43,0.00,,,0.00,0.0,meteohub,2013-04-06 02:57:00,
2013-04-05 20:00:00,48.7,27.3,30.66,North,350,5.0,9.0,43,0.00,,,0.00,0.0,meteohub,2013-04-06 03:00:00,
2013-04-05 20:08:00,48.6,27.7,30.66,WSW,243,2.0,5.0,44,0.00,,,0.00,0.0,meteohub,2013-04-06 03:08:00,
2013-04-05 20:22:00,47.8,27.5,30.67,West,262,3.0,5.0,45,0.00,,,0.00,0.0,meteohub,2013-04-06 03:22:00,
2013-04-05 20:33:00,47.8,28.0,30.67,SW,228,1.0,5.0,46,0.00,,,0.00,0.0,meteohub,2013-04-06 03:33:00,
2013-04-05 20:37:00,47.7,27.3,30.67,WSW,247,3.0,5.0,45,0.00,,,0.00,0.0,meteohub,2013-04-06 03:37:00,
2013-04-05 20:42:00,47.7,27.3,30.67,West,274,1.0,5.0,45,0.00,,,0.00,0.0,meteohub,2013-04-06 03:42:00,
2013-04-05 20:47:00,47.5,27.1,30.67,West,260,0.0,4.0,45,0.00,,,0.00,0.0,meteohub,2013-04-06 03:47:00,
2013-04-05 20:57:00,47.3,27.0,30.68,West,265,4.0,4.0,45,0.00,,,0.00,0.0,meteohub,2013-04-06 03:57:00,
2013-04-05 21:02:00,47.5,27.7,30.68,WNW,288,0.0,6.0,46,0.00,,,0.00,0.0,meteohub,2013-04-06 04:02:00,
2013-04-05 21:07:00,47.5,27.1,30.68,WSW,246,1.0,6.0,45,0.00,,,0.00,0.0,meteohub,2013-04-06 04:07:00,
2013-04-05 21:12:00,47.5,27.7,30.67,West,266,4.0,6.0,46,0.00,,,0.00,0.0,meteohub,2013-04-06 04:12:00,
2013-04-05 21:20:00,47.1,27.3,30.68,NNW,343,5.0,6.0,46,0.00,,,0.00,0.0,meteohub,2013-04-06 04:20:00,
2013-04-05 21:22:00,47.5,27.7,30.68,South,189,0.0,7.0,46,0.00,,,0.00,0.0,meteohub,2013-04-06 04:22:00,
2013-04-05 21:27:00,47.5,27.1,30.68,WNW,301,2.0,7.0,45,0.00,,,0.00,0.0,meteohub,2013-04-06 04:27:00,
2013-04-05 21:32:00,47.5,27.1,30.67,WNW,293,5.0,7.0,45,0.00,,,0.00,0.0,meteohub,2013-04-06 04:32:00,
2013-04-05 21:42:00,47.5,27.1,30.68,WSW,258,2.0,6.0,45,0.00,,,0.00,0.0,meteohub,2013-04-06 04:42:00,
2013-04-05 21:47:00,46.9,27.3,30.68,West,259,1.0,6.0,46,0.00,,,0.00,0.0,meteohub,2013-04-06 04:47:00,
2013-04-05 21:52:00,46.8,27.7,30.68,West,277,2.0,7.0,47,0.00,,,0.00,0.0,meteohub,2013-04-06 04:52:00,
2013-04-05 21:57:00,46.6,27.0,30.68,West,265,2.0,7.0,46,0.00,,,0.00,0.0,meteohub,2013-04-06 04:57:00,
2013-04-05 22:07:00,46.6,27.5,30.68,West,265,0.0,7.0,47,0.00,,,0.00,0.0,meteohub,2013-04-06 05:07:00,
2013-04-05 22:17:00,46.8,27.1,30.67,North,5,4.0,5.0,46,0.00,,,0.00,0.0,meteohub,2013-04-06 05:17:00,
2013-04-05 22:22:00,46.9,27.3,30.67,West,277,1.0,6.0,46,0.00,,,0.00,0.0,meteohub,2013-04-06 05:22:00,
2013-04-05 22:32:00,47.5,26.6,30.67,North,350,1.0,8.0,44,0.00,,,0.00,0.0,meteohub,2013-04-06 05:32:00,
2013-04-05 22:37:00,47.7,26.2,30.67,North,351,6.0,8.0,43,0.00,,,0.00,0.0,meteohub,2013-04-06 05:37:00,
2013-04-05 22:47:00,47.3,25.9,30.68,North,0,4.0,8.0,43,0.00,,,0.00,0.0,meteohub,2013-04-06 05:47:00,
2013-04-05 22:57:00,46.9,26.2,30.68,North,5,1.0,6.0,44,0.00,,,0.00,0.0,meteohub,2013-04-06 05:57:00,
2013-04-05 23:02:00,46.8,25.5,30.68,NW,314,3.0,6.0,43,0.00,,,0.00,0.0,meteohub,2013-04-06 06:02:00,
2013-04-05 23:13:00,46.8,25.5,30.68,NNE,19,2.0,9.0,43,0.00,,,0.00,0.0,meteohub,2013-04-06 06:13:00,
2013-04-05 23:22:00,46.4,23.9,30.67,WNW,295,2.0,9.0,41,0.00,,,0.00,0.0,meteohub,2013-04-06 06:22:00,
2013-04-05 23:31:00,46.8,25.5,30.67,NNW,333,1.0,6.0,43,0.00,,,0.00,0.0,meteohub,2013-04-06 06:31:00,
2013-04-05 23:37:00,47.1,24.6,30.67,East,88,0.0,5.0,41,0.00,,,0.00,0.0,meteohub,2013-04-06 06:37:00,
2013-04-05 23:44:00,46.9,23.9,30.67,NNW,331,3.0,5.0,40,0.00,,,0.00,0.0,meteohub,2013-04-06 06:44:00,
2013-04-05 23:52:00,46.2,22.6,30.67,WSW,246,0.0,4.0,39,0.00,,,0.00,0.0,meteohub,2013-04-06 06:52:00,
2013-04-05 23:57:00,46.2,23.2,30.67,ESE,111,0.0,6.0,40,0.00,,,0.00,0.0,meteohub,2013-04-06 06:57:00,